KOLS/OLS METAR and TAF weather

Enter ICAO airport designator
Station Type Date Time Source
KOLS METAR 2019/06/17 04:54 UTC NOAA

KOLS 170454Z AUTO 18005KT 10SM CLR 26/M03 A2997 RMK AO2 SLP068 T02561033


Station Type Date Time Source
KOLS Decoded METAR 2019/06/17 04:54 UTC NOAA

NOGALES INTERNATIONAL AIRPORT , AZ, United States (KOLS) 31-25N 110-51W 1184M
Jun 17, 2019 - 12:54 AM EDT / 2019.06.17 0454 UTC
Wind: from the S (180 degrees) at 6 MPH (5 KT):0
Visibility: 10 mile(s):0
Sky conditions: clear
Temperature: 78.1 F (25.6 C)
Dew Point: 26.1 F (-3.3 C)
Relative Humidity: 14%
Pressure (altimeter): 29.97 in. Hg (1014 hPa)
ob: KOLS 170454Z AUTO 18005KT 10SM CLR 26/M03 A2997 RMK AO2 SLP068 T02561033
cycle: 5

Station Type Date Time Source
KOLS TAF 2019/06/16 18:42 UTC NOAA

TAF KOLS 161739Z 1618/1718 22011KT P6SM FEW250
FM162000 21011G19KT P6SM FEW250
FM170200 20006KT P6SM FEW250
FM170500 VRB03KT P6SM SCT250

Example: see airport list